createdAt,value
2022-09-05T00:00:46.215Z,3.40
2022-09-05T00:01:45.892Z,3.40
2022-09-05T00:02:49.411Z,3.50
2022-09-05T00:03:46.017Z,3.50
2022-09-05T00:04:45.859Z,3.40
2022-09-05T00:05:51.007Z,3.50
2022-09-05T00:06:47.124Z,3.70
2022-09-05T00:08:00.136Z,3.60
2022-09-05T00:08:46.795Z,3.30
2022-09-05T00:09:45.782Z,3.70
2022-09-05T00:11:39.280Z,3.50
2022-09-05T00:11:46.769Z,3.50
2022-09-05T00:12:45.759Z,3.40
2022-09-05T00:13:45.995Z,3.50
2022-09-05T00:15:14.641Z,3.60
2022-09-05T00:15:46.757Z,3.40
2022-09-05T00:16:45.710Z,3.40
2022-09-05T00:19:28.439Z,3.70
2022-09-05T00:22:07.106Z,3.70
2022-09-05T00:24:20.904Z,3.60
2022-09-05T00:24:28.426Z,3.40
2022-09-05T00:24:30.376Z,3.20
2022-09-05T00:24:32.020Z,3.70
2022-09-05T00:24:32.275Z,3.80
2022-09-05T00:25:00.726Z,3.40
2022-09-05T00:25:46.610Z,3.60
2022-09-05T00:26:49.943Z,3.70
2022-09-05T00:27:45.780Z,3.70
2022-09-05T00:28:45.560Z,3.80
2022-09-05T00:31:00.437Z,3.50
2022-09-05T00:31:51.937Z,3.50
2022-09-05T00:31:54.561Z,3.60
2022-09-05T00:32:46.601Z,3.60
2022-09-05T00:33:45.503Z,3.60
2022-09-05T00:34:47.987Z,3.40
2022-09-05T00:35:45.483Z,3.60
2022-09-05T00:36:45.473Z,3.90
2022-09-05T00:37:45.464Z,4.10
2022-09-05T00:38:45.474Z,4.00
2022-09-05T00:39:47.733Z,3.70
2022-09-05T00:40:46.716Z,3.80
2022-09-05T00:41:45.424Z,3.40
2022-09-05T00:42:45.532Z,3.70
2022-09-05T00:43:45.399Z,3.60
2022-09-05T00:44:45.401Z,3.70
2022-09-05T00:45:45.380Z,3.70
2022-09-05T00:46:45.669Z,3.70
2022-09-05T00:47:47.863Z,3.80
2022-09-05T00:48:45.337Z,3.70
2022-09-05T00:49:45.317Z,3.70
2022-09-05T00:50:45.331Z,3.80
2022-09-05T00:51:45.511Z,4.00
2022-09-05T00:52:50.483Z,3.80
2022-09-05T00:53:46.268Z,3.60
2022-09-05T00:54:45.282Z,3.70
2022-09-05T00:55:45.249Z,3.60
2022-09-05T00:56:45.253Z,3.60
2022-09-05T00:57:45.513Z,3.70
2022-09-05T00:58:45.231Z,3.50
2022-09-05T00:59:50.806Z,3.40
2022-09-05T01:00:46.191Z,3.50
2022-09-05T01:01:45.280Z,3.60
2022-09-05T01:02:51.598Z,3.70
2022-09-05T01:03:46.353Z,3.60
2022-09-05T01:04:45.156Z,3.50
2022-09-05T01:05:45.132Z,3.70
2022-09-05T01:06:45.123Z,3.60
2022-09-05T01:07:46.642Z,3.80
2022-09-05T01:08:45.103Z,3.70
2022-09-05T01:09:45.117Z,3.90
2022-09-05T01:10:45.087Z,3.50
2022-09-05T01:11:45.078Z,3.20
2022-09-05T01:12:52.887Z,3.50
2022-09-05T01:13:46.058Z,3.40
2022-09-05T01:14:45.057Z,3.60
2022-09-05T01:15:45.293Z,3.50
2022-09-05T01:16:45.186Z,3.50
2022-09-05T01:17:45.008Z,3.60
2022-09-05T01:18:44.987Z,3.60
2022-09-05T01:19:45.277Z,3.30
2022-09-05T01:20:44.972Z,3.40
2022-09-05T01:21:47.562Z,3.70
2022-09-05T01:22:44.938Z,3.60
2022-09-05T01:23:44.940Z,3.70
2022-09-05T01:24:45.244Z,3.70
2022-09-05T01:25:52.374Z,3.80
2022-09-05T01:26:45.903Z,3.70
2022-09-05T01:28:43.573Z,4.10
2022-09-05T01:29:15.390Z,3.50
2022-09-05T01:29:45.867Z,3.50
2022-09-05T01:30:44.948Z,3.70
2022-09-05T01:31:44.845Z,3.70
2022-09-05T01:32:44.821Z,3.60
2022-09-05T01:33:45.033Z,3.60
2022-09-05T01:34:44.801Z,3.70
2022-09-05T01:35:57.834Z,3.30
2022-09-05T01:36:45.774Z,3.60
2022-09-05T01:37:51.992Z,3.50
2022-09-05T01:39:15.222Z,3.80
2022-09-05T01:40:14.645Z,3.60
2022-09-05T01:40:45.766Z,3.60
2022-09-05T01:41:45.722Z,3.80
2022-09-05T01:42:44.713Z,3.60
2022-09-05T01:43:44.902Z,3.80
2022-09-05T01:44:44.682Z,3.70
2022-09-05T01:45:44.677Z,3.70
2022-09-05T01:46:45.053Z,3.90
2022-09-05T01:47:44.654Z,3.80
2022-09-05T01:48:47.588Z,3.60
2022-09-05T01:49:44.915Z,3.80
2022-09-05T01:50:44.628Z,3.90
2022-09-05T01:51:44.604Z,3.70
2022-09-05T01:52:47.732Z,4.00
2022-09-05T01:53:45.876Z,3.90
2022-09-05T01:54:44.566Z,3.80
2022-09-05T01:56:04.586Z,3.50
2022-09-05T01:56:45.546Z,3.80
2022-09-05T01:57:44.541Z,3.60
2022-09-05T01:58:44.539Z,3.70
2022-09-05T01:59:45.297Z,4.10
2022-09-05T02:00:44.513Z,3.90
2022-09-05T02:01:44.496Z,3.90
2022-09-05T02:02:50.217Z,3.90
2022-09-05T02:03:45.474Z,4.00
2022-09-05T02:04:44.463Z,3.80
2022-09-05T02:05:48.163Z,3.90
2022-09-05T02:06:45.441Z,4.10
2022-09-05T02:07:44.743Z,3.80
2022-09-05T02:08:44.727Z,3.90
2022-09-05T02:09:44.625Z,3.90
2022-09-05T02:10:44.631Z,4.00
2022-09-05T02:11:44.362Z,4.20
2022-09-05T02:12:44.365Z,3.70
2022-09-05T02:13:45.355Z,3.90
2022-09-05T02:14:44.595Z,3.70
2022-09-05T02:15:59.179Z,4.20
2022-09-05T02:16:45.327Z,4.00
2022-09-05T02:17:50.367Z,4.10
2022-09-05T02:18:45.293Z,4.10
2022-09-05T02:19:44.288Z,4.10
2022-09-05T02:20:44.475Z,4.20
2022-09-05T02:21:55.481Z,4.00
2022-09-05T02:22:45.257Z,4.10
2022-09-05T02:23:44.759Z,4.30
2022-09-05T02:24:44.215Z,4.10
2022-09-05T02:26:02.643Z,4.30
2022-09-05T02:26:45.196Z,3.90
2022-09-05T02:28:04.292Z,4.10
2022-09-05T02:28:45.179Z,3.90
2022-09-05T02:29:44.158Z,4.00
2022-09-05T02:31:01.565Z,4.10
2022-09-05T02:31:45.424Z,3.90
2022-09-05T02:32:44.120Z,4.20
2022-09-05T02:33:44.429Z,3.80
2022-09-05T02:34:44.089Z,4.20
2022-09-05T02:35:44.102Z,4.20
2022-09-05T02:36:44.071Z,4.00
2022-09-05T02:39:25.624Z,3.90
2022-09-05T02:40:31.234Z,4.20
2022-09-05T02:45:05.938Z,4.10
2022-09-05T02:45:06.290Z,4.20
2022-09-05T02:45:09.339Z,4.00
2022-09-05T02:45:09.613Z,4.20
2022-09-05T02:45:15.181Z,4.00
2022-09-05T02:45:18.189Z,3.80
2022-09-05T02:45:45.083Z,4.20
2022-09-05T02:46:44.067Z,4.40
2022-09-05T02:47:43.955Z,4.10
2022-09-05T02:48:43.947Z,4.00
2022-09-05T02:50:44.692Z,4.00
2022-09-05T02:53:52.029Z,4.10
2022-09-05T02:56:01.530Z,3.90
2022-09-05T02:57:26.057Z,4.30
2022-09-05T02:57:27.751Z,4.00
2022-09-05T02:57:39.468Z,4.00
2022-09-05T02:57:40.795Z,3.80
2022-09-05T02:57:42.662Z,4.10
2022-09-05T02:58:06.513Z,4.00
2022-09-05T02:59:08.579Z,3.80
2022-09-05T02:59:44.814Z,4.20
2022-09-05T03:00:43.797Z,3.70
2022-09-05T03:01:44.166Z,4.00
2022-09-05T03:02:43.813Z,3.90
2022-09-05T03:03:43.773Z,4.20
2022-09-05T03:04:43.748Z,4.10
2022-09-05T03:05:43.732Z,4.00
2022-09-05T03:06:43.741Z,4.20
2022-09-05T03:07:44.021Z,4.00
2022-09-05T03:08:43.713Z,4.00
2022-09-05T03:09:43.708Z,4.10
2022-09-05T03:10:53.950Z,4.10
2022-09-05T03:11:44.963Z,4.20
2022-09-05T03:12:43.653Z,3.90
2022-09-05T03:13:48.944Z,4.10
2022-09-05T03:14:44.631Z,3.90
2022-09-05T03:15:43.633Z,3.90
2022-09-05T03:16:47.094Z,3.90
2022-09-05T03:17:43.614Z,4.10
2022-09-05T03:18:43.598Z,3.80
2022-09-05T03:19:46.118Z,4.10
2022-09-05T03:20:43.877Z,3.80
2022-09-05T03:21:43.558Z,3.80
2022-09-05T03:22:43.546Z,3.80
2022-09-05T03:23:43.866Z,3.80
2022-09-05T03:24:48.225Z,3.70
2022-09-05T03:25:44.527Z,3.40
2022-09-05T03:26:43.486Z,3.80
2022-09-05T03:27:43.487Z,3.80
2022-09-05T03:28:43.739Z,3.80
2022-09-05T03:29:43.456Z,3.90
2022-09-05T03:30:43.509Z,4.00
2022-09-05T03:31:43.427Z,3.80
2022-09-05T03:32:43.462Z,4.00
2022-09-05T03:33:43.407Z,3.70
2022-09-05T03:34:43.407Z,3.70
2022-09-05T03:35:43.402Z,3.80
2022-09-05T03:36:43.372Z,3.80
2022-09-05T03:37:43.373Z,3.90
2022-09-05T03:38:47.081Z,3.60
2022-09-05T03:39:43.451Z,3.80
2022-09-05T03:40:43.324Z,4.00
2022-09-05T03:41:43.471Z,3.90
2022-09-05T03:42:43.316Z,4.00
2022-09-05T03:43:43.304Z,3.60
2022-09-05T03:44:43.294Z,3.90
2022-09-05T03:45:43.607Z,3.90
2022-09-05T03:46:43.252Z,3.70
2022-09-05T03:47:43.259Z,3.80
2022-09-05T03:48:43.542Z,3.80
2022-09-05T03:53:31.057Z,3.70
2022-09-05T03:57:04.413Z,4.10
2022-09-05T03:57:07.800Z,4.00
2022-09-05T03:57:15.450Z,4.00
2022-09-05T03:57:17.486Z,3.70
2022-09-05T03:57:19.054Z,3.90
2022-09-05T03:57:22.673Z,3.90
2022-09-05T03:57:22.992Z,3.70
2022-09-05T03:57:44.141Z,3.80
2022-09-05T03:58:59.380Z,3.80
2022-09-05T03:59:44.107Z,3.60
2022-09-05T04:00:43.087Z,4.00
2022-09-05T04:03:30.800Z,3.70
2022-09-05T04:03:37.859Z,3.70
2022-09-05T04:08:14.407Z,3.60
2022-09-05T04:08:14.680Z,3.60
2022-09-05T04:08:17.690Z,3.50
2022-09-05T04:08:19.338Z,3.90
2022-09-05T04:08:20.760Z,3.70
2022-09-05T04:08:44.346Z,4.10
2022-09-05T04:09:50.970Z,3.90
2022-09-05T04:10:44.027Z,3.50
2022-09-05T04:11:42.973Z,4.00
2022-09-05T04:12:42.965Z,4.10
2022-09-05T04:13:42.964Z,4.00
2022-09-05T04:14:42.935Z,3.80
2022-09-05T04:15:43.243Z,3.70
2022-09-05T04:16:42.950Z,3.70
2022-09-05T04:17:42.918Z,4.00
2022-09-05T04:18:42.896Z,3.80
2022-09-05T04:19:42.871Z,4.00
2022-09-05T04:20:44.163Z,3.80
2022-09-05T04:21:42.867Z,3.80
2022-09-05T04:22:42.834Z,4.10
2022-09-05T04:23:42.823Z,3.70
2022-09-05T04:24:42.818Z,4.00
2022-09-05T04:25:42.804Z,4.00
2022-09-05T04:26:43.005Z,4.00
2022-09-05T04:27:42.798Z,4.10
2022-09-05T04:28:42.926Z,4.10
2022-09-05T04:29:43.769Z,4.00
2022-09-05T04:30:42.759Z,4.30
2022-09-05T04:31:42.813Z,3.80
2022-09-05T04:32:43.027Z,4.10
2022-09-05T04:33:42.729Z,4.40
2022-09-05T04:34:42.750Z,3.80
2022-09-05T04:35:42.989Z,4.10
2022-09-05T04:36:42.691Z,3.80
2022-09-05T04:37:47.929Z,4.10
2022-09-05T04:38:43.664Z,4.00
2022-09-05T04:39:42.692Z,3.90
2022-09-05T04:40:42.943Z,3.90
2022-09-05T04:41:42.633Z,3.80
2022-09-05T04:42:42.621Z,4.00
2022-09-05T04:43:42.611Z,4.30
2022-09-05T04:44:42.595Z,3.90
2022-09-05T04:45:42.657Z,3.90
2022-09-05T04:46:48.379Z,3.90
2022-09-05T04:47:43.565Z,3.70
2022-09-05T04:48:42.542Z,4.10
2022-09-05T04:49:42.551Z,4.00
2022-09-05T04:50:42.513Z,4.20
2022-09-05T04:51:44.052Z,4.00
2022-09-05T04:52:42.483Z,4.20
2022-09-05T04:53:42.483Z,4.30
2022-09-05T04:54:42.784Z,4.10
2022-09-05T04:55:42.477Z,4.10
2022-09-05T04:56:43.449Z,4.00
2022-09-05T04:57:42.435Z,4.20
2022-09-05T05:00:04.169Z,4.00
2022-09-05T05:04:28.156Z,4.20
2022-09-05T05:05:59.724Z,4.30
2022-09-05T05:06:11.396Z,4.20
2022-09-05T05:06:11.748Z,4.30
2022-09-05T05:06:12.589Z,4.30
2022-09-05T05:06:12.915Z,4.40
2022-09-05T05:06:16.897Z,4.20
2022-09-05T05:06:46.773Z,4.30
2022-09-05T05:07:42.440Z,4.10
2022-09-05T05:08:42.398Z,3.90
2022-09-05T05:09:42.298Z,4.40
2022-09-05T05:11:02.487Z,4.60
2022-09-05T05:18:01.320Z,4.50
2022-09-05T05:18:01.553Z,4.00
2022-09-05T05:18:02.173Z,4.10
2022-09-05T05:18:07.223Z,4.70
2022-09-05T05:18:07.792Z,4.50
2022-09-05T05:18:14.680Z,4.50
2022-09-05T05:18:16.110Z,4.40
2022-09-05T05:18:57.622Z,4.60
2022-09-05T05:19:43.257Z,4.00
2022-09-05T05:20:44.020Z,4.30
2022-09-05T05:21:42.166Z,4.30
2022-09-05T05:22:42.151Z,4.40
2022-09-05T05:23:42.469Z,4.20
2022-09-05T05:24:42.139Z,4.20
2022-09-05T05:25:42.106Z,4.30
2022-09-05T05:26:42.105Z,4.20
2022-09-05T05:27:42.097Z,4.10
2022-09-05T05:28:42.074Z,4.00
2022-09-05T05:29:42.087Z,4.20
2022-09-05T05:30:42.069Z,4.20
2022-09-05T05:31:42.091Z,4.00
2022-09-05T05:32:46.102Z,3.80
2022-09-05T05:33:42.336Z,4.40
2022-09-05T05:34:42.020Z,4.10
2022-09-05T05:35:47.890Z,4.00
2022-09-05T05:36:42.986Z,4.10
2022-09-05T05:37:41.968Z,3.80
2022-09-05T05:38:41.981Z,4.40
2022-09-05T05:39:42.300Z,3.80
2022-09-05T05:40:50.985Z,4.00
2022-09-05T05:41:42.932Z,4.10
2022-09-05T05:42:41.932Z,4.00
2022-09-05T05:43:46.250Z,4.20
2022-09-05T05:44:41.904Z,3.80
2022-09-05T05:45:41.933Z,4.00
2022-09-05T05:46:42.813Z,3.80
2022-09-05T05:47:41.876Z,3.90
2022-09-05T05:48:44.170Z,4.00
2022-09-05T05:49:42.843Z,3.90
2022-09-05T05:50:41.835Z,3.90
2022-09-05T05:52:02.648Z,3.90
2022-09-05T05:52:43.115Z,3.70
2022-09-05T05:53:43.368Z,4.10
2022-09-05T05:54:41.772Z,4.20
2022-09-05T05:55:53.072Z,3.80
2022-09-05T05:56:42.773Z,3.80
2022-09-05T05:57:41.776Z,3.80
2022-09-05T05:58:41.734Z,4.50
2022-09-05T05:59:41.727Z,4.00
2022-09-05T06:00:42.717Z,3.90
2022-09-05T06:01:42.874Z,4.10
2022-09-05T06:02:41.787Z,4.00
2022-09-05T06:03:41.797Z,3.90
2022-09-05T06:04:45.211Z,4.10
2022-09-05T06:05:41.637Z,3.90
2022-09-05T06:06:41.635Z,3.80
2022-09-05T06:07:57.470Z,3.40
2022-09-05T06:14:49.206Z,3.90
2022-09-05T06:14:49.474Z,3.80
2022-09-05T06:14:49.678Z,3.70
2022-09-05T06:14:59.169Z,3.80
2022-09-05T06:15:00.162Z,3.40
2022-09-05T06:15:05.202Z,3.40
2022-09-05T06:15:06.090Z,3.80
2022-09-05T06:15:42.866Z,3.50
2022-09-05T06:16:41.675Z,3.70
2022-09-05T06:17:41.523Z,3.60
2022-09-05T06:18:45.502Z,3.80
2022-09-05T06:19:54.537Z,4.10
2022-09-05T06:22:04.773Z,4.10
2022-09-05T06:22:11.351Z,3.70
2022-09-05T06:22:42.463Z,3.70
2022-09-05T06:23:41.841Z,3.60
2022-09-05T06:24:41.445Z,3.70
2022-09-05T06:25:41.413Z,3.80
2022-09-05T06:26:41.451Z,3.70
2022-09-05T06:27:43.808Z,3.70
2022-09-05T06:28:42.394Z,3.70
2022-09-05T06:29:46.495Z,3.70
2022-09-05T06:30:42.427Z,3.70
2022-09-05T06:31:41.389Z,3.30
2022-09-05T06:32:49.238Z,3.70
2022-09-05T06:33:42.418Z,3.60
2022-09-05T06:34:41.339Z,3.50
2022-09-05T06:35:41.307Z,3.60
2022-09-05T06:36:41.286Z,3.40
2022-09-05T06:37:41.286Z,3.80
2022-09-05T06:38:41.476Z,4.00
2022-09-05T06:39:45.135Z,3.50
2022-09-05T06:40:42.236Z,3.30
2022-09-05T06:41:41.257Z,3.80
2022-09-05T06:42:43.797Z,3.90
2022-09-05T06:43:41.211Z,4.00
2022-09-05T06:44:41.188Z,3.80
2022-09-05T06:45:41.268Z,3.80
2022-09-05T06:46:54.301Z,3.50
2022-09-05T06:47:42.233Z,3.40
2022-09-05T06:48:46.104Z,3.10
2022-09-05T06:49:45.894Z,3.70
2022-09-05T06:50:54.631Z,3.80
2022-09-05T06:51:44.168Z,3.60
2022-09-05T06:52:41.114Z,4.00
2022-09-05T06:53:41.393Z,3.80
2022-09-05T06:54:43.425Z,3.80
2022-09-05T06:55:42.072Z,3.70
2022-09-05T06:56:41.052Z,3.30
2022-09-05T06:57:44.445Z,3.80
2022-09-05T06:58:41.040Z,3.80
2022-09-05T06:59:41.401Z,3.50
2022-09-05T07:00:41.067Z,3.50
2022-09-05T07:02:00.012Z,3.70
2022-09-05T07:02:58.695Z,3.90
2022-09-05T07:03:41.974Z,3.50
2022-09-05T07:05:24.655Z,4.10
2022-09-05T07:05:42.824Z,3.90
2022-09-05T07:07:01.163Z,3.70
2022-09-05T07:07:45.837Z,3.50
2022-09-05T07:08:40.928Z,3.60
2022-09-05T07:09:40.933Z,3.50
2022-09-05T07:10:40.941Z,3.60
2022-09-05T07:11:40.891Z,3.60
2022-09-05T07:12:41.256Z,3.50
2022-09-05T07:13:44.864Z,3.60
2022-09-05T07:14:40.877Z,3.80
2022-09-05T07:15:40.842Z,3.80
2022-09-05T07:16:40.894Z,3.90
2022-09-05T07:17:53.810Z,3.70
2022-09-05T07:18:41.799Z,3.40
2022-09-05T07:19:47.462Z,3.30
2022-09-05T07:21:15.897Z,3.40
2022-09-05T07:21:43.124Z,3.30
2022-09-05T07:22:48.605Z,3.40
2022-09-05T07:24:09.119Z,3.40
2022-09-05T07:24:54.422Z,3.20
2022-09-05T07:25:41.712Z,3.30
2022-09-05T07:26:51.618Z,3.60
2022-09-05T07:28:25.901Z,3.10
2022-09-05T07:28:41.680Z,3.40
2022-09-05T07:29:41.663Z,3.30
2022-09-05T07:30:41.694Z,2.90
2022-09-05T07:31:40.684Z,3.10
2022-09-05T07:32:40.843Z,3.30
2022-09-05T07:33:40.860Z,3.00
2022-09-05T07:34:40.605Z,2.80
2022-09-05T07:35:41.465Z,3.10
2022-09-05T07:36:40.586Z,3.80
2022-09-05T07:37:40.577Z,3.00
2022-09-05T07:38:55.313Z,2.70
2022-09-05T07:39:41.839Z,2.70
2022-09-05T07:40:40.600Z,2.70
2022-09-05T07:41:40.528Z,2.60
2022-09-05T07:42:40.541Z,3.20
2022-09-05T07:43:40.529Z,3.00
2022-09-05T07:44:40.512Z,4.00
2022-09-05T07:45:41.913Z,2.90
2022-09-05T07:46:41.514Z,3.00
2022-09-05T07:47:40.470Z,2.70
2022-09-05T07:48:40.442Z,2.70
2022-09-05T07:49:45.637Z,3.30
2022-09-05T07:54:10.349Z,2.90
2022-09-05T07:56:47.457Z,2.70
2022-09-05T07:56:50.804Z,4.40
2022-09-05T07:56:59.015Z,2.70
2022-09-05T07:56:59.651Z,2.50
2022-09-05T07:57:02.081Z,2.70
2022-09-05T07:57:06.156Z,2.70
2022-09-05T07:57:51.264Z,3.00
2022-09-05T07:58:41.342Z,2.60
2022-09-05T07:59:40.325Z,2.50
2022-09-05T08:00:40.686Z,2.40
2022-09-05T08:01:40.310Z,2.50
2022-09-05T08:02:44.084Z,2.60
2022-09-05T08:03:41.349Z,2.40
2022-09-05T08:04:40.293Z,2.50
2022-09-05T08:05:40.328Z,3.20
2022-09-05T08:07:45.600Z,3.00
2022-09-05T08:07:49.238Z,2.80
2022-09-05T08:08:41.240Z,2.70
2022-09-05T08:10:06.681Z,2.10
2022-09-05T08:11:22.799Z,2.20
2022-09-05T08:11:41.403Z,2.50
2022-09-05T08:12:44.974Z,2.10
2022-09-05T08:13:41.160Z,2.30
2022-09-05T08:14:44.145Z,2.30
2022-09-05T08:16:09.880Z,2.30
2022-09-05T08:16:41.178Z,2.20
2022-09-05T08:17:40.242Z,2.20
2022-09-05T08:18:42.631Z,2.10
2022-09-05T08:19:40.108Z,2.00
2022-09-05T08:20:40.093Z,2.10
2022-09-05T08:21:40.225Z,2.80
2022-09-05T08:22:40.063Z,2.30
2022-09-05T08:23:41.377Z,2.30
2022-09-05T08:24:40.043Z,2.10
2022-09-05T08:25:57.309Z,2.00
2022-09-05T08:26:44.162Z,2.00
2022-09-05T08:27:41.019Z,2.00
2022-09-05T08:28:40.103Z,1.80
2022-09-05T08:29:40.017Z,2.00
2022-09-05T08:30:40.011Z,2.10
2022-09-05T08:31:41.798Z,2.00
2022-09-05T08:32:40.192Z,1.90
2022-09-05T08:33:39.950Z,1.90
2022-09-05T08:34:45.200Z,1.90
2022-09-05T08:35:40.909Z,1.90
2022-09-05T08:36:39.922Z,1.80
2022-09-05T08:37:40.111Z,1.90
2022-09-05T08:38:40.610Z,1.80
2022-09-05T08:39:39.936Z,1.80
2022-09-05T08:40:39.885Z,1.80
2022-09-05T08:41:49.951Z,1.80
2022-09-05T08:42:42.652Z,1.80
2022-09-05T08:46:35.358Z,1.70
2022-09-05T08:46:39.459Z,1.80
2022-09-05T08:46:40.134Z,1.60
2022-09-05T08:46:49.297Z,1.80
2022-09-05T08:47:45.425Z,1.80
2022-09-05T08:48:40.764Z,1.70
2022-09-05T08:49:44.045Z,1.70
2022-09-05T08:50:40.758Z,1.70
2022-09-05T08:51:44.782Z,2.10
2022-09-05T08:52:40.717Z,1.60
2022-09-05T08:53:46.249Z,1.80
2022-09-05T08:54:40.696Z,2.40
2022-09-05T08:55:39.689Z,2.20
2022-09-05T08:56:39.688Z,1.80
2022-09-05T08:57:39.969Z,1.80
2022-09-05T08:58:39.663Z,1.80
2022-09-05T09:00:06.318Z,1.70
2022-09-05T09:00:40.896Z,1.90
2022-09-05T09:01:57.705Z,1.80
2022-09-05T09:02:48.086Z,1.70
2022-09-05T09:03:40.626Z,1.70
2022-09-05T09:05:01.382Z,1.70
2022-09-05T09:05:56.729Z,1.70
2022-09-05T09:06:40.795Z,1.70
2022-09-05T09:07:51.459Z,1.90
2022-09-05T09:08:40.541Z,1.90
2022-09-05T09:09:39.536Z,1.60
2022-09-05T09:10:39.526Z,1.80
2022-09-05T09:11:39.805Z,1.60
2022-09-05T09:12:39.504Z,1.80
2022-09-05T09:13:39.487Z,1.70
2022-09-05T09:14:39.480Z,1.60
2022-09-05T09:15:39.466Z,1.70
2022-09-05T09:16:39.466Z,1.60
2022-09-05T09:17:39.447Z,1.80
2022-09-05T09:18:39.416Z,1.70
2022-09-05T09:19:39.406Z,1.80
2022-09-05T09:20:41.124Z,1.70
2022-09-05T09:21:40.641Z,1.60
2022-09-05T09:22:39.381Z,1.60
2022-09-05T09:23:39.434Z,1.60
2022-09-05T09:24:39.359Z,1.70
2022-09-05T09:25:39.362Z,1.70
2022-09-05T09:26:39.341Z,1.80
2022-09-05T09:28:43.687Z,1.90
2022-09-05T09:28:47.511Z,1.70
2022-09-05T09:29:40.301Z,1.80
2022-09-05T09:30:39.509Z,1.80
2022-09-05T09:31:39.335Z,1.50
2022-09-05T09:32:39.269Z,1.50
2022-09-05T09:33:39.515Z,2.00
2022-09-05T09:34:39.751Z,2.00
2022-09-05T09:35:40.246Z,2.00
2022-09-05T09:36:39.244Z,1.80
2022-09-05T09:37:50.484Z,1.40
2022-09-05T09:38:40.196Z,1.70
2022-09-05T09:39:39.962Z,1.50
2022-09-05T09:40:39.165Z,1.60
2022-09-05T09:41:39.178Z,1.60
2022-09-05T09:42:39.172Z,1.50
2022-09-05T09:43:39.145Z,1.60
2022-09-05T09:44:40.367Z,1.60
2022-09-05T09:45:39.140Z,1.60
2022-09-05T09:46:39.468Z,1.50
2022-09-05T09:47:39.098Z,1.80
2022-09-05T09:48:39.079Z,1.90
2022-09-05T09:49:39.099Z,1.80
2022-09-05T09:50:41.879Z,1.60
2022-09-05T09:51:40.049Z,1.70
2022-09-05T09:52:39.049Z,1.70
2022-09-05T09:53:39.039Z,2.10
2022-09-05T09:54:39.246Z,1.60
2022-09-05T09:55:39.031Z,1.60
2022-09-05T09:56:39.005Z,2.00
2022-09-05T09:57:38.982Z,1.60
2022-09-05T09:58:38.995Z,1.90
2022-09-05T09:59:54.267Z,1.50
2022-09-05T10:00:39.944Z,1.50
2022-09-05T10:01:39.001Z,1.60
2022-09-05T10:08:59.782Z,1.50
2022-09-05T10:09:09.554Z,1.40
2022-09-05T10:10:35.766Z,1.40
2022-09-05T10:10:39.257Z,1.50
2022-09-05T10:10:43.657Z,1.40
2022-09-05T10:10:49.221Z,1.30
2022-09-05T10:10:57.331Z,1.40
2022-09-05T10:10:59.082Z,1.40
2022-09-05T10:11:23.787Z,1.40
2022-09-05T10:11:54.115Z,1.30
2022-09-05T10:12:39.826Z,1.50
2022-09-05T10:13:39.194Z,1.50
2022-09-05T10:14:50.629Z,1.60
2022-09-05T10:15:39.843Z,1.40
2022-09-05T10:16:38.762Z,1.70
2022-09-05T10:17:38.999Z,1.80
2022-09-05T10:18:38.742Z,1.80
2022-09-05T10:20:39.731Z,1.40
2022-09-05T10:21:38.705Z,1.60
2022-09-05T10:22:38.728Z,1.60
2022-09-05T10:23:44.649Z,1.50
2022-09-05T10:24:39.673Z,1.60
2022-09-05T10:25:38.686Z,1.40
2022-09-05T10:26:38.909Z,1.70
2022-09-05T10:27:38.636Z,1.60
2022-09-05T10:28:39.638Z,1.40
2022-09-05T10:29:38.860Z,1.40
2022-09-05T10:32:19.317Z,1.40
2022-09-05T10:34:59.413Z,1.30
2022-09-05T10:35:11.570Z,1.60
2022-09-05T10:35:14.166Z,1.50
2022-09-05T10:35:14.559Z,1.60
2022-09-05T10:35:39.609Z,1.50
2022-09-05T10:36:38.840Z,1.60
2022-09-05T10:37:40.004Z,1.60
2022-09-05T10:38:38.770Z,1.60
2022-09-05T10:39:38.540Z,1.60
2022-09-05T10:41:16.152Z,1.40
2022-09-05T10:41:39.482Z,1.40
2022-09-05T10:42:43.388Z,1.40
2022-09-05T10:43:39.663Z,1.50
2022-09-05T10:44:38.466Z,1.40
2022-09-05T10:45:39.086Z,1.50
2022-09-05T10:46:53.721Z,1.40
2022-09-05T10:47:39.448Z,1.60
2022-09-05T10:48:38.413Z,1.60
2022-09-05T10:49:38.399Z,1.50
2022-09-05T10:50:38.399Z,1.40
2022-09-05T10:51:38.392Z,1.40
2022-09-05T10:52:38.390Z,1.60
2022-09-05T10:53:39.956Z,1.60
2022-09-05T10:54:38.328Z,1.40
2022-09-05T10:55:38.340Z,1.60
2022-09-05T10:56:38.318Z,1.50
2022-09-05T10:57:38.343Z,1.30
2022-09-05T11:01:55.911Z,1.40
2022-09-05T11:02:23.064Z,1.60
2022-09-05T11:02:24.923Z,1.40
2022-09-05T11:02:29.618Z,1.50
2022-09-05T11:02:42.513Z,1.50
2022-09-05T11:03:39.546Z,1.40
2022-09-05T11:04:49.730Z,1.50
2022-09-05T11:05:39.580Z,1.30
2022-09-05T11:06:38.193Z,1.90
2022-09-05T11:07:38.195Z,1.40
2022-09-05T11:08:38.197Z,1.40
2022-09-05T11:09:38.397Z,1.40
2022-09-05T11:10:38.155Z,1.50
2022-09-05T11:11:38.156Z,1.50
2022-09-05T11:12:38.129Z,1.50
2022-09-05T11:13:38.408Z,1.50
2022-09-05T11:14:38.128Z,1.50
2022-09-05T11:15:43.883Z,1.40
2022-09-05T11:16:39.155Z,1.40
2022-09-05T11:17:38.091Z,1.50
2022-09-05T11:18:55.238Z,1.40
2022-09-05T11:19:39.059Z,1.90
2022-09-05T11:20:38.400Z,1.40
2022-09-05T11:21:38.039Z,1.50
2022-09-05T11:22:38.040Z,1.50
2022-09-05T11:23:38.761Z,1.30
2022-09-05T11:24:38.015Z,1.30
2022-09-05T11:25:40.605Z,1.40
2022-09-05T11:26:37.987Z,1.30
2022-09-05T11:27:37.984Z,1.40
2022-09-05T11:28:38.447Z,1.30
2022-09-05T11:29:39.264Z,1.20
2022-09-05T11:30:38.886Z,1.40
2022-09-05T11:31:59.130Z,1.40
2022-09-05T11:39:06.684Z,1.40
2022-09-05T11:39:47.231Z,1.50
2022-09-05T11:39:48.085Z,1.40
2022-09-05T11:39:53.052Z,1.20
2022-09-05T11:39:55.339Z,1.40
2022-09-05T11:39:57.410Z,1.50
2022-09-05T11:40:02.466Z,1.40
2022-09-05T11:40:10.854Z,1.40
2022-09-05T11:40:56.326Z,1.30
2022-09-05T11:41:38.899Z,1.40
2022-09-05T11:42:37.831Z,1.40
2022-09-05T11:43:37.824Z,1.40
2022-09-05T11:44:37.802Z,1.30
2022-09-05T11:45:37.785Z,1.30
2022-09-05T11:46:37.796Z,1.50
2022-09-05T11:47:44.122Z,1.50
2022-09-05T11:48:38.743Z,1.50
2022-09-05T11:49:38.734Z,1.30
2022-09-05T11:50:37.736Z,1.60
2022-09-05T11:51:37.985Z,1.50
2022-09-05T11:52:37.715Z,1.40
2022-09-05T11:53:37.698Z,1.50
2022-09-05T11:54:37.683Z,1.40
2022-09-05T11:55:37.986Z,1.40
2022-09-05T11:56:41.858Z,1.30
2022-09-05T11:57:38.650Z,1.30
2022-09-05T11:58:44.962Z,1.60
2022-09-05T11:59:38.633Z,1.40
2022-09-05T12:00:38.842Z,1.50
2022-09-05T12:01:43.126Z,1.20
2022-09-05T12:02:39.415Z,1.40
2022-09-05T12:03:58.869Z,1.30
2022-09-05T12:04:38.550Z,1.40
2022-09-05T12:05:50.166Z,1.40
2022-09-05T12:06:38.587Z,1.30
2022-09-05T12:07:38.567Z,1.40
2022-09-05T12:08:37.510Z,1.40
2022-09-05T12:09:37.516Z,1.40
2022-09-05T12:10:47.719Z,1.30
2022-09-05T12:11:38.504Z,1.30
2022-09-05T12:12:41.474Z,1.40
2022-09-05T12:13:38.787Z,1.30
2022-09-05T12:14:39.531Z,1.50
2022-09-05T12:15:37.475Z,1.30
2022-09-05T12:16:38.680Z,1.40
2022-09-05T12:17:37.420Z,1.50
2022-09-05T12:18:37.396Z,1.30
2022-09-05T12:19:37.401Z,1.60
2022-09-05T12:20:43.656Z,1.30
2022-09-05T12:21:38.879Z,1.30
2022-09-05T12:22:37.349Z,1.40
2022-09-05T12:23:55.309Z,1.40
2022-09-05T12:25:25.929Z,1.40
2022-09-05T12:27:39.581Z,1.40
2022-09-05T12:27:40.543Z,1.20
2022-09-05T12:27:46.080Z,1.40
2022-09-05T12:29:29.333Z,1.40
2022-09-05T12:29:46.847Z,1.20
2022-09-05T12:30:58.660Z,1.30
2022-09-05T12:32:58.083Z,1.60
2022-09-05T12:36:03.554Z,1.40
2022-09-05T12:36:05.532Z,1.50
2022-09-05T12:36:11.067Z,1.30
2022-09-05T12:36:11.451Z,1.30
2022-09-05T12:40:53.413Z,1.30
2022-09-05T12:40:54.834Z,1.40
2022-09-05T12:40:57.774Z,1.40
2022-09-05T12:41:01.327Z,1.40
2022-09-05T12:41:38.398Z,1.40
2022-09-05T12:42:07.482Z,1.30
2022-09-05T12:42:56.186Z,1.50
2022-09-05T12:44:36.680Z,1.40
2022-09-05T12:44:45.457Z,1.40
2022-09-05T12:45:38.308Z,1.20
2022-09-05T12:46:37.100Z,1.30
2022-09-05T12:47:37.403Z,1.30
2022-09-05T12:48:39.313Z,2.00
2022-09-05T12:49:37.049Z,1.30
2022-09-05T12:50:37.031Z,1.10
2022-09-05T12:51:45.045Z,1.40
2022-09-05T12:52:38.222Z,1.30
2022-09-05T12:53:37.002Z,1.30
2022-09-05T12:54:36.984Z,1.30
2022-09-05T12:55:36.997Z,1.40
2022-09-05T12:58:04.111Z,1.20
2022-09-05T13:02:56.931Z,1.40
2022-09-05T13:03:01.032Z,1.30
2022-09-05T13:03:04.929Z,1.20
2022-09-05T13:03:07.313Z,1.30
2022-09-05T13:03:08.574Z,1.30
2022-09-05T13:03:08.862Z,1.50
2022-09-05T13:03:53.340Z,1.30
2022-09-05T13:04:51.224Z,1.30
2022-09-05T13:05:37.964Z,1.40
2022-09-05T13:06:36.985Z,1.40
2022-09-05T13:07:37.374Z,1.40
2022-09-05T13:08:36.834Z,1.60
2022-09-05T13:09:58.245Z,1.30
2022-09-05T13:13:21.491Z,1.40
2022-09-05T13:14:55.595Z,1.20
2022-09-05T13:14:57.189Z,1.60
2022-09-05T13:14:57.191Z,1.40
2022-09-05T13:15:02.617Z,1.70
2022-09-05T13:15:37.853Z,1.40
2022-09-05T13:16:36.832Z,1.30
2022-09-05T13:17:36.750Z,1.30
2022-09-05T13:18:37.715Z,1.20
2022-09-05T13:19:36.737Z,1.20